createdAt,value
2022-09-17T00:04:41.053Z,86.10
2022-09-17T00:19:44.018Z,85.75
2022-09-17T00:34:49.378Z,85.77
2022-09-17T00:50:22.085Z,85.85
2022-09-17T01:06:01.677Z,86.51
2022-09-17T01:21:26.024Z,86.91
2022-09-17T01:36:35.409Z,86.79
2022-09-17T01:51:43.419Z,87.45
2022-09-17T02:06:53.602Z,88.94
2022-09-17T02:22:43.138Z,91.48
2022-09-17T02:37:46.346Z,93.67
2022-09-17T02:52:57.952Z,96.42
2022-09-17T03:08:01.362Z,98.88
2022-09-17T03:23:04.572Z,99.48
2022-09-17T03:38:07.769Z,100.00
2022-09-17T03:53:11.625Z,100.00
2022-09-17T04:08:14.583Z,100.00
2022-09-17T04:23:17.559Z,100.00
2022-09-17T04:38:22.369Z,100.00
2022-09-17T04:53:25.543Z,100.00
2022-09-17T05:08:28.621Z,100.00
2022-09-17T05:23:31.969Z,100.00
2022-09-17T05:38:35.638Z,100.00
2022-09-17T05:53:39.158Z,100.00
2022-09-17T06:08:42.414Z,100.00
2022-09-17T06:23:45.954Z,100.00
2022-09-17T06:38:49.108Z,100.00
2022-09-17T06:53:52.170Z,99.01
2022-09-17T07:08:55.365Z,94.56
2022-09-17T07:23:58.958Z,91.64
2022-09-17T07:39:02.141Z,89.28
2022-09-17T07:54:06.392Z,89.18
2022-09-17T08:09:11.096Z,85.87
2022-09-17T08:24:14.454Z,82.98
2022-09-17T08:39:18.380Z,84.09
2022-09-17T08:54:42.844Z,90.37
2022-09-17T09:09:54.351Z,92.91
2022-09-17T09:25:18.482Z,93.80
2022-09-17T09:40:32.870Z,94.56
2022-09-17T09:55:48.714Z,94.55
2022-09-17T10:10:58.338Z,92.07
2022-09-17T10:26:01.665Z,90.92
2022-09-17T10:41:15.781Z,90.78
2022-09-17T10:56:32.392Z,91.95
2022-09-17T11:11:59.149Z,90.18
2022-09-17T11:27:17.007Z,86.81
2022-09-17T11:42:26.574Z,81.14
2022-09-17T11:57:35.475Z,81.97
2022-09-17T12:12:50.297Z,82.87
2022-09-17T12:28:16.720Z,82.32
2022-09-17T12:43:28.993Z,81.93
2022-09-17T12:58:49.440Z,82.34
2022-09-17T13:14:28.463Z,81.37
2022-09-17T13:29:43.782Z,82.66
2022-09-17T13:44:54.868Z,82.53
2022-09-17T14:00:00.806Z,68.80
2022-09-17T14:15:05.084Z,70.92
2022-09-17T14:30:19.944Z,78.07
2022-09-17T14:45:26.597Z,82.60
2022-09-17T15:00:38.647Z,85.99
2022-09-17T15:15:56.526Z,82.03
2022-09-17T15:31:00.283Z,74.66
2022-09-17T15:46:36.706Z,80.63
2022-09-17T16:02:01.986Z,96.70
2022-09-17T16:17:22.225Z,98.52
2022-09-17T16:32:25.438Z,99.14
2022-09-17T16:47:30.811Z,99.28
2022-09-17T17:02:34.656Z,100.00
2022-09-17T17:17:38.506Z,100.00
2022-09-17T17:32:42.059Z,100.00
2022-09-17T17:47:46.166Z,100.00
2022-09-17T18:02:51.689Z,100.00
2022-09-17T18:17:55.712Z,100.00
2022-09-17T18:32:59.823Z,100.00
2022-09-17T18:48:05.875Z,100.00
2022-09-17T19:03:09.163Z,100.00
2022-09-17T19:18:15.003Z,100.00
2022-09-17T19:33:18.889Z,100.00
2022-09-17T19:48:25.294Z,100.00
2022-09-17T20:03:29.867Z,100.00
2022-09-17T20:18:35.844Z,100.00
2022-09-17T20:33:39.450Z,100.00
2022-09-17T20:48:43.387Z,100.00
2022-09-17T21:03:50.392Z,100.00
2022-09-17T21:19:01.850Z,100.00
2022-09-17T21:34:08.515Z,100.00
2022-09-17T21:49:13.424Z,100.00
2022-09-17T22:04:19.577Z,100.00
2022-09-17T22:19:25.207Z,100.00
2022-09-17T22:34:29.984Z,100.00
2022-09-17T22:49:33.025Z,100.00
2022-09-17T23:04:36.249Z,100.00
2022-09-17T23:19:39.779Z,100.00
2022-09-17T23:34:42.977Z,100.00
2022-09-17T23:49:45.926Z,100.00
